Time;durP1;ratioP1;P1;durP2;ratioP2;P2;SDS_P1;SDS_P2;PMS_P1;PMS_P2;Temp;Humidity;BMP_temperature;BMP_pressure;BME280_temperature;BME280_humidity;BME280_pressure;Samples;Min_cycle;Max_cycle;Signal;HPM_P1;HPM_P2
2022/05/30 00:02:12;;;;;;;6.22;2.03;;;;;;;;;;5083824;28;20048;-78
2022/05/30 00:04:39;;;;;;;6.35;1.73;;;;;;;;;;5084165;28;20437;-78
2022/05/30 00:07:06;;;;;;;4.53;1.90;;;;;;;;;;5080843;28;20021;-77
2022/05/30 00:09:33;;;;;;;3.10;1.70;;;;;;;;;;5074101;28;20016;-78
2022/05/30 00:12:00;;;;;;;5.45;1.98;;;;;;;;;;5082440;28;20110;-77
2022/05/30 00:14:26;;;;;;;7.53;1.83;;;;;;;;;;5083944;28;20036;-78
2022/05/30 00:16:52;;;;;;;5.90;1.98;;;;;;;;;;5084473;28;20048;-77
2022/05/30 00:19:18;;;;;;;2.78;1.50;;;;;;;;;;5082710;28;20035;-78
2022/05/30 00:21:45;;;;;;;3.45;1.70;;;;;;;;;;5083653;28;20021;-79
2022/05/30 00:24:12;;;;;;;5.47;2.20;;;;;;;;;;5084177;28;20030;-77
2022/05/30 00:26:38;;;;;;;4.75;1.70;;;;;;;;;;5083925;28;20017;-78
2022/05/30 00:29:05;;;;;;;7.57;2.05;;;;;;;;;;5082494;28;20020;-77
2022/05/30 00:31:31;;;;;;;4.07;1.80;;;;;;;;;;5084419;28;20024;-78
2022/05/30 00:33:58;;;;;;;4.45;1.90;;;;;;;;;;5083709;28;20040;-78
2022/05/30 00:36:24;;;;;;;9.50;2.22;;;;;;;;;;5082603;28;20020;-78
2022/05/30 00:38:50;;;;;;;4.22;2.10;;;;;;;;;;5083784;28;20038;-76
2022/05/30 00:41:17;;;;;;;7.18;1.80;;;;;;;;;;5083986;28;20467;-78
2022/05/30 00:43:45;;;;;;;6.90;1.98;;;;;;;;;;5082659;28;20516;-77
2022/05/30 00:46:12;;;;;;;3.53;1.70;;;;;;;;;;5083484;28;20498;-77
2022/05/30 00:49:02;;;;;;;3.00;1.63;;;;;;;;;;5082113;28;20111;-79
2022/05/30 00:51:31;;;;;;;5.03;1.80;;;;;;;;;;5069203;28;20379;-77
2022/05/30 00:53:58;;;;;;;5.63;2.28;;;;;;;;;;5083492;28;20114;-77
2022/05/30 00:56:29;;;;;;;7.03;2.13;;;;;;;;;;5083672;28;20016;-77
2022/05/30 00:58:56;;;;;;;7.15;2.30;;;;;;;;;;5083825;28;20073;-77
2022/05/30 01:01:22;;;;;;;5.45;1.55;;;;;;;;;;5081669;28;20056;-77
2022/05/30 01:06:55;;;;;;;5.13;1.67;;;;;;;;;;5067081;28;20537;-78
2022/05/30 01:09:23;;;;;;;7.97;1.95;;;;;;;;;;5071622;28;20472;-77
2022/05/30 01:11:54;;;;;;;7.40;2.35;;;;;;;;;;5082216;28;20036;-77
2022/05/30 01:14:21;;;;;;;8.00;2.08;;;;;;;;;;5083441;28;20396;-77
2022/05/30 01:16:48;;;;;;;5.10;1.98;;;;;;;;;;5083507;28;20047;-79
2022/05/30 01:19:20;;;;;;;4.68;1.55;;;;;;;;;;5086777;28;20024;-77
2022/05/30 01:22:01;;;;;;;9.13;2.25;;;;;;;;;;5086880;28;20372;-77
2022/05/30 01:24:37;;;;;;;5.20;1.70;;;;;;;;;;5086817;28;20028;-78
2022/05/30 01:27:16;;;;;;;6.93;2.47;;;;;;;;;;5085575;28;20065;-78
2022/05/30 01:29:45;;;;;;;7.90;2.03;;;;;;;;;;5074002;28;20064;-77
2022/05/30 01:32:16;;;;;;;5.05;2.00;;;;;;;;;;5086578;28;20028;-78
2022/05/30 01:34:43;;;;;;;7.82;1.85;;;;;;;;;;5087180;28;20055;-77
2022/05/30 01:37:09;;;;;;;5.88;2.38;;;;;;;;;;5085423;28;20322;-77
2022/05/30 01:39:35;;;;;;;4.65;2.08;;;;;;;;;;5086704;28;20081;-78
2022/05/30 01:42:01;;;;;;;7.72;1.80;;;;;;;;;;5087258;28;20122;-77
2022/05/30 01:44:27;;;;;;;7.97;2.28;;;;;;;;;;5086604;28;20028;-77
2022/05/30 01:46:53;;;;;;;5.78;2.00;;;;;;;;;;5086803;28;20081;-77
2022/05/30 01:49:19;;;;;;;3.50;1.70;;;;;;;;;;5083649;28;20020;-78
2022/05/30 01:51:46;;;;;;;5.47;2.08;;;;;;;;;;5086997;28;20020;-77
2022/05/30 01:54:12;;;;;;;4.75;1.92;;;;;;;;;;5086631;28;20044;-78
2022/05/30 01:56:38;;;;;;;4.55;1.95;;;;;;;;;;5086401;28;20044;-77
2022/05/30 01:59:04;;;;;;;4.50;1.55;;;;;;;;;;5086600;28;20027;-77
2022/05/30 02:01:30;;;;;;;6.93;2.33;;;;;;;;;;5086204;28;20035;-77
2022/05/30 02:03:57;;;;;;;7.95;2.28;;;;;;;;;;5084329;28;20047;-77
2022/05/30 02:06:26;;;;;;;7.43;2.47;;;;;;;;;;5084798;28;20093;-77
2022/05/30 02:08:52;;;;;;;8.45;2.15;;;;;;;;;;5071914;28;20052;-77
2022/05/30 02:11:19;;;;;;;5.55;2.20;;;;;;;;;;5086136;28;20528;-77
2022/05/30 02:13:46;;;;;;;4.45;1.67;;;;;;;;;;5084673;28;20052;-77
2022/05/30 02:18:58;;;;;;;4.88;1.95;;;;;;;;;;5086210;28;20553;-77
2022/05/30 02:21:24;;;;;;;5.75;2.03;;;;;;;;;;5085733;28;20020;-78
2022/05/30 02:23:50;;;;;;;7.32;2.08;;;;;;;;;;5084220;28;20028;-76
2022/05/30 02:26:17;;;;;;;6.60;2.40;;;;;;;;;;5085951;28;20028;-77
2022/05/30 02:28:43;;;;;;;5.20;2.20;;;;;;;;;;5086019;28;20051;-76
2022/05/30 02:31:09;;;;;;;8.23;2.47;;;;;;;;;;5085462;28;20027;-77
2022/05/30 02:39:04;;;;;;;7.65;2.47;;;;;;;;;;5083974;28;20084;-76
2022/05/30 02:41:31;;;;;;;4.63;2.15;;;;;;;;;;5085615;28;20020;-77
2022/05/30 02:43:57;;;;;;;7.30;2.38;;;;;;;;;;5085626;28;20331;-77
2022/05/30 02:46:24;;;;;;;5.80;2.33;;;;;;;;;;5085188;28;20384;-77
2022/05/30 02:48:50;;;;;;;6.20;2.00;;;;;;;;;;5083703;28;20139;-77
2022/05/30 02:51:16;;;;;;;4.70;1.83;;;;;;;;;;5085061;28;20541;-76
2022/05/30 02:53:42;;;;;;;6.05;2.10;;;;;;;;;;5085570;28;20038;-76
2022/05/30 02:56:11;;;;;;;6.50;2.20;;;;;;;;;;5085424;28;20487;-76
2022/05/30 02:58:37;;;;;;;5.75;1.67;;;;;;;;;;5085272;28;20081;-76
2022/05/30 03:01:04;;;;;;;8.27;2.03;;;;;;;;;;5085293;28;20024;-77
2022/05/30 03:03:30;;;;;;;5.68;1.98;;;;;;;;;;5083653;28;20070;-77
2022/05/30 03:05:56;;;;;;;6.22;2.20;;;;;;;;;;5085534;28;20031;-77
2022/05/30 03:08:22;;;;;;;4.38;2.03;;;;;;;;;;5069198;28;20483;-77
2022/05/30 03:10:49;;;;;;;6.97;2.45;;;;;;;;;;5083613;28;20024;-77
2022/05/30 03:13:15;;;;;;;4.75;2.00;;;;;;;;;;5085485;28;21044;-77
2022/05/30 03:15:41;;;;;;;5.93;2.08;;;;;;;;;;5085263;28;20027;-77
2022/05/30 03:18:07;;;;;;;6.32;2.58;;;;;;;;;;5084826;28;20054;-77
2022/05/30 03:20:33;;;;;;;9.70;2.20;;;;;;;;;;5083193;28;20482;-77
2022/05/30 03:23:00;;;;;;;4.93;1.70;;;;;;;;;;5085109;28;20031;-77
2022/05/30 03:25:26;;;;;;;8.93;2.17;;;;;;;;;;5084905;28;20020;-77
2022/05/30 03:27:53;;;;;;;6.57;2.30;;;;;;;;;;5085282;28;20043;-78
2022/05/30 03:30:19;;;;;;;5.15;1.90;;;;;;;;;;5083195;28;20047;-77
2022/05/30 03:32:45;;;;;;;6.35;2.13;;;;;;;;;;5084355;28;20020;-77
2022/05/30 03:35:12;;;;;;;5.95;1.95;;;;;;;;;;5085098;28;20471;-77
2022/05/30 03:37:39;;;;;;;4.60;1.98;;;;;;;;;;5084419;28;20032;-76
2022/05/30 03:40:06;;;;;;;3.90;1.90;;;;;;;;;;5084186;28;20027;-78
2022/05/30 03:42:33;;;;;;;7.45;2.30;;;;;;;;;;5083141;28;20031;-77
2022/05/30 03:44:59;;;;;;;5.10;2.10;;;;;;;;;;5084515;28;20190;-77
2022/05/30 03:47:25;;;;;;;8.27;1.88;;;;;;;;;;5084160;28;20031;-78
2022/05/30 03:49:58;;;;;;;7.13;1.98;;;;;;;;;;5084513;28;20062;-77
2022/05/30 03:52:24;;;;;;;6.53;2.00;;;;;;;;;;5084411;28;20024;-78
2022/05/30 03:54:52;;;;;;;5.20;1.95;;;;;;;;;;5084262;28;20028;-78
2022/05/30 03:57:18;;;;;;;4.80;2.25;;;;;;;;;;5083118;28;20023;-77
2022/05/30 03:59:44;;;;;;;6.97;2.47;;;;;;;;;;5084155;28;20024;-78
2022/05/30 04:02:10;;;;;;;4.43;2.03;;;;;;;;;;5084256;28;20063;-77
2022/05/30 04:04:37;;;;;;;5.70;2.00;;;;;;;;;;5082722;28;20020;-78
2022/05/30 04:07:03;;;;;;;7.28;2.63;;;;;;;;;;5080683;28;20021;-78
2022/05/30 04:09:29;;;;;;;4.65;1.92;;;;;;;;;;5073050;28;20047;-77
2022/05/30 04:11:55;;;;;;;4.85;2.17;;;;;;;;;;5083920;28;20024;-78
2022/05/30 04:14:21;;;;;;;6.63;2.05;;;;;;;;;;5084177;28;20036;-77
2022/05/30 04:16:47;;;;;;;7.50;2.67;;;;;;;;;;5082749;28;20277;-78
2022/05/30 04:19:14;;;;;;;6.22;2.28;;;;;;;;;;5083752;28;20107;-78
2022/05/30 04:21:40;;;;;;;7.05;2.22;;;;;;;;;;5083945;28;20024;-77
2022/05/30 04:24:07;;;;;;;7.43;2.30;;;;;;;;;;5082097;28;20388;-77
2022/05/30 04:26:33;;;;;;;6.93;2.10;;;;;;;;;;5084409;28;20024;-78
2022/05/30 04:28:59;;;;;;;4.70;1.90;;;;;;;;;;5084148;28;20046;-78
2022/05/30 04:31:25;;;;;;;6.10;2.00;;;;;;;;;;5084562;28;20375;-78
2022/05/30 04:33:52;;;;;;;6.43;1.85;;;;;;;;;;5083939;28;20036;-78
2022/05/30 04:36:18;;;;;;;7.95;1.90;;;;;;;;;;5083803;28;20027;-77
2022/05/30 04:38:44;;;;;;;3.67;1.90;;;;;;;;;;5084213;28;20028;-77
2022/05/30 04:41:10;;;;;;;6.03;2.00;;;;;;;;;;5085043;28;20025;-77
2022/05/30 04:43:36;;;;;;;5.03;1.80;;;;;;;;;;5084285;28;20032;-78
2022/05/30 04:46:16;;;;;;;5.93;1.70;;;;;;;;;;5082604;28;20023;-78
2022/05/30 04:48:43;;;;;;;6.28;2.10;;;;;;;;;;5081972;28;20043;-78
2022/05/30 04:51:09;;;;;;;5.85;2.20;;;;;;;;;;5083167;28;20035;-78
2022/05/30 04:53:35;;;;;;;4.40;1.95;;;;;;;;;;5087901;28;20052;-76
2022/05/30 04:56:02;;;;;;;4.93;2.13;;;;;;;;;;5087778;28;20028;-77
2022/05/30 04:58:28;;;;;;;5.55;2.20;;;;;;;;;;5087640;28;20038;-78
2022/05/30 05:00:58;;;;;;;5.35;2.15;;;;;;;;;;5087014;28;20020;-78
2022/05/30 05:03:25;;;;;;;3.67;2.15;;;;;;;;;;5085408;28;20058;-78
2022/05/30 05:05:51;;;;;;;4.75;2.45;;;;;;;;;;5087667;28;20047;-78
2022/05/30 05:08:17;;;;;;;6.03;2.10;;;;;;;;;;5073541;28;20032;-78
2022/05/30 05:10:55;;;;;;;4.75;2.38;;;;;;;;;;5084916;28;20379;-78
2022/05/30 05:13:21;;;;;;;4.90;2.35;;;;;;;;;;5087295;28;20039;-77
2022/05/30 05:15:47;;;;;;;4.43;1.90;;;;;;;;;;5085171;28;20016;-77
2022/05/30 05:18:14;;;;;;;8.07;2.53;;;;;;;;;;5087441;28;20020;-78
2022/05/30 05:20:44;;;;;;;3.85;2.10;;;;;;;;;;5085817;28;20065;-78
2022/05/30 05:23:13;;;;;;;7.55;2.22;;;;;;;;;;5087134;28;20098;-77
2022/05/30 05:25:40;;;;;;;6.90;1.98;;;;;;;;;;5085391;28;20102;-78
2022/05/30 05:28:06;;;;;;;6.85;2.25;;;;;;;;;;5086714;28;20106;-78
2022/05/30 05:30:33;;;;;;;5.53;2.10;;;;;;;;;;5086628;28;20020;-78
2022/05/30 05:32:59;;;;;;;6.63;2.35;;;;;;;;;;5087098;28;20035;-77
2022/05/30 05:35:25;;;;;;;6.72;2.63;;;;;;;;;;5086997;28;20032;-78
2022/05/30 05:37:51;;;;;;;6.75;2.40;;;;;;;;;;5085291;28;20016;-77
2022/05/30 05:40:18;;;;;;;7.97;2.90;;;;;;;;;;5086752;28;20046;-78
2022/05/30 05:42:44;;;;;;;6.97;2.78;;;;;;;;;;5087050;28;20024;-79
2022/05/30 05:45:10;;;;;;;5.75;2.75;;;;;;;;;;5086836;28;20031;-78
2022/05/30 05:47:37;;;;;;;3.72;2.40;;;;;;;;;;5085168;28;20541;-77
2022/05/30 05:50:03;;;;;;;7.43;2.70;;;;;;;;;;5085190;28;20024;-78
2022/05/30 05:52:30;;;;;;;4.95;2.35;;;;;;;;;;5086515;28;20081;-78
2022/05/30 05:54:56;;;;;;;7.38;2.42;;;;;;;;;;5086757;28;20041;-78
2022/05/30 05:57:25;;;;;;;8.15;2.90;;;;;;;;;;5086394;28;20016;-79
2022/05/30 05:59:51;;;;;;;4.30;2.20;;;;;;;;;;5084515;28;20017;-77
2022/05/30 06:02:17;;;;;;;6.60;2.72;;;;;;;;;;5085380;28;20040;-77
2022/05/30 06:04:44;;;;;;;3.17;2.05;;;;;;;;;;5085975;28;20031;-78
2022/05/30 06:07:10;;;;;;;8.73;2.50;;;;;;;;;;5082355;28;20029;-77
2022/05/30 06:09:37;;;;;;;5.95;2.40;;;;;;;;;;5076456;28;20020;-78
2022/05/30 06:12:03;;;;;;;7.43;2.65;;;;;;;;;;5085915;28;20020;-78
2022/05/30 06:14:29;;;;;;;5.90;2.30;;;;;;;;;;5083279;28;20043;-77
2022/05/30 06:16:56;;;;;;;7.43;2.63;;;;;;;;;;5085706;28;20024;-78
2022/05/30 06:19:23;;;;;;;5.45;2.10;;;;;;;;;;5086320;28;20108;-77
2022/05/30 06:21:49;;;;;;;9.73;2.63;;;;;;;;;;5084466;28;20188;-77
2022/05/30 06:24:15;;;;;;;9.35;2.42;;;;;;;;;;5085852;28;20035;-78
2022/05/30 06:26:44;;;;;;;7.68;2.80;;;;;;;;;;5085714;28;20024;-77
2022/05/30 06:29:11;;;;;;;10.07;2.47;;;;;;;;;;5083956;28;20027;-78
2022/05/30 06:31:38;;;;;;;7.45;2.20;;;;;;;;;;5085588;28;20025;-77
2022/05/30 06:34:04;;;;;;;12.57;3.10;;;;;;;;;;5085697;28;20036;-78
2022/05/30 06:36:31;;;;;;;7.15;2.50;;;;;;;;;;5085704;28;20059;-77
2022/05/30 06:38:57;;;;;;;6.05;2.40;;;;;;;;;;5085702;28;20032;-77
2022/05/30 06:41:29;;;;;;;10.68;3.20;;;;;;;;;;5071103;28;20239;-77
2022/05/30 06:44:02;;;;;;;8.00;2.83;;;;;;;;;;5083937;28;20034;-77
2022/05/30 06:46:28;;;;;;;5.55;2.22;;;;;;;;;;5085272;28;20021;-79
2022/05/30 06:48:56;;;;;;;11.65;2.83;;;;;;;;;;5085344;28;20027;-77
2022/05/30 06:51:23;;;;;;;7.63;2.53;;;;;;;;;;5085483;28;20186;-77
2022/05/30 06:53:49;;;;;;;6.03;2.35;;;;;;;;;;5085091;28;20069;-79
2022/05/30 06:56:17;;;;;;;9.48;2.70;;;;;;;;;;5083518;28;20020;-78
2022/05/30 06:58:47;;;;;;;5.32;2.58;;;;;;;;;;5085784;28;20476;-78
2022/05/30 07:01:15;;;;;;;6.40;2.60;;;;;;;;;;5085193;28;20563;-77
2022/05/30 07:03:41;;;;;;;7.07;2.90;;;;;;;;;;5085051;28;20491;-79
2022/05/30 07:06:09;;;;;;;11.80;2.90;;;;;;;;;;5085029;28;20040;-78
2022/05/30 07:08:35;;;;;;;10.88;2.97;;;;;;;;;;5067475;28;20029;-78
2022/05/30 07:11:02;;;;;;;7.13;2.42;;;;;;;;;;5072638;28;20032;-78
2022/05/30 07:13:29;;;;;;;11.27;2.90;;;;;;;;;;5084017;28;20036;-77
2022/05/30 07:15:55;;;;;;;7.93;2.45;;;;;;;;;;5084806;28;20042;-77
2022/05/30 07:18:21;;;;;;;6.95;2.30;;;;;;;;;;5085307;28;20024;-78
2022/05/30 07:20:54;;;;;;;8.35;3.03;;;;;;;;;;5082924;28;20016;-78
2022/05/30 07:23:21;;;;;;;7.65;2.35;;;;;;;;;;5084871;28;20051;-78
2022/05/30 07:25:47;;;;;;;7.35;2.80;;;;;;;;;;5084652;28;20253;-77
2022/05/30 07:28:13;;;;;;;10.82;3.22;;;;;;;;;;5084660;28;20110;-77
2022/05/30 07:30:40;;;;;;;8.32;2.95;;;;;;;;;;5082932;28;20024;-79
2022/05/30 07:33:07;;;;;;;7.57;2.78;;;;;;;;;;5084546;28;20040;-77
2022/05/30 07:35:33;;;;;;;9.63;2.50;;;;;;;;;;5084324;28;20070;-78
2022/05/30 07:37:59;;;;;;;11.88;2.65;;;;;;;;;;5084765;28;20024;-78
2022/05/30 07:40:25;;;;;;;6.80;2.97;;;;;;;;;;5084641;28;20028;-78
2022/05/30 07:42:51;;;;;;;7.93;2.75;;;;;;;;;;5082813;28;20084;-77
2022/05/30 07:45:17;;;;;;;8.52;2.88;;;;;;;;;;5084482;28;20028;-78
2022/05/30 07:47:43;;;;;;;9.90;3.20;;;;;;;;;;5084890;28;20039;-77
2022/05/30 07:50:10;;;;;;;10.68;2.92;;;;;;;;;;5084656;28;20024;-77
2022/05/30 07:52:36;;;;;;;14.38;3.40;;;;;;;;;;5082641;28;20060;-77
2022/05/30 07:55:02;;;;;;;10.52;2.65;;;;;;;;;;5084074;28;20092;-78
2022/05/30 08:00:14;;;;;;;10.90;3.30;;;;;;;;;;5071357;28;20438;-78
2022/05/30 08:02:41;;;;;;;9.65;3.47;;;;;;;;;;5083824;28;20040;-78
2022/05/30 08:05:08;;;;;;;13.15;3.25;;;;;;;;;;5082865;28;20255;-78
2022/05/30 08:07:34;;;;;;;12.90;3.10;;;;;;;;;;5076894;28;20036;-78
2022/05/30 08:10:01;;;;;;;14.02;3.75;;;;;;;;;;5077568;28;20024;-77
2022/05/30 08:12:27;;;;;;;15.50;3.40;;;;;;;;;;5084150;28;20038;-78
2022/05/30 08:14:53;;;;;;;10.15;3.50;;;;;;;;;;5084181;28;20032;-77
2022/05/30 08:17:20;;;;;;;10.13;2.80;;;;;;;;;;5082905;28;20103;-77
2022/05/30 08:19:46;;;;;;;11.15;2.85;;;;;;;;;;5084575;28;20036;-77
2022/05/30 08:22:12;;;;;;;9.88;3.13;;;;;;;;;;5083687;28;20020;-78
2022/05/30 08:24:39;;;;;;;10.75;3.28;;;;;;;;;;5083860;28;20077;-77
2022/05/30 08:27:06;;;;;;;11.18;3.20;;;;;;;;;;5087933;28;20028;-78
2022/05/30 08:29:32;;;;;;;11.32;3.28;;;;;;;;;;5088172;28;20089;-78
2022/05/30 08:31:58;;;;;;;8.85;3.08;;;;;;;;;;5086749;28;20016;-78
2022/05/30 08:34:25;;;;;;;7.80;2.78;;;;;;;;;;5088075;28;20059;-78
2022/05/30 08:36:52;;;;;;;10.52;3.60;;;;;;;;;;5087838;28;20027;-78
2022/05/30 08:42:04;;;;;;;11.52;3.13;;;;;;;;;;5088224;28;20407;-79
2022/05/30 08:44:30;;;;;;;10.85;3.30;;;;;;;;;;5087593;28;20090;-77
2022/05/30 08:47:01;;;;;;;7.38;2.92;;;;;;;;;;5086147;28;20028;-77
2022/05/30 08:49:28;;;;;;;;;;;;;;;;;;5088237;28;20456;-77
2022/05/30 08:52:13;;;;;;;7.63;2.75;;;;;;;;;;5088152;28;19908;-77
2022/05/30 08:54:58;;;;;;;9.82;2.83;;;;;;;;;;5087632;28;20315;-77
2022/05/30 08:57:40;;;;;;;5.80;2.78;;;;;;;;;;5085929;28;20560;-78
2022/05/30 09:00:06;;;;;;;8.32;2.78;;;;;;;;;;5087310;28;20027;-77
2022/05/30 09:02:42;;;;;;;4.53;2.42;;;;;;;;;;5087457;28;20143;-78
2022/05/30 09:05:08;;;;;;;11.57;3.25;;;;;;;;;;5087106;28;20032;-78
2022/05/30 09:07:39;;;;;;;5.80;2.70;;;;;;;;;;5079869;28;20043;-77
2022/05/30 09:10:09;;;;;;;14.98;3.33;;;;;;;;;;5081444;28;20063;-77
2022/05/30 09:12:35;;;;;;;10.38;3.40;;;;;;;;;;5085877;28;20225;-77
2022/05/30 09:15:15;;;;;;;9.63;3.50;;;;;;;;;;5087376;28;20044;-78
2022/05/30 09:17:59;;;;;;;12.57;3.22;;;;;;;;;;5087172;28;20024;-78
2022/05/30 09:20:26;;;;;;;9.40;3.25;;;;;;;;;;5085473;28;20028;-77
2022/05/30 09:22:52;;;;;;;11.02;3.22;;;;;;;;;;5087584;28;20534;-78
2022/05/30 09:28:05;;;;;;;8.10;3.10;;;;;;;;;;5075792;28;20039;-78
2022/05/30 09:30:37;;;;;;;11.50;2.90;;;;;;;;;;5086969;28;20016;-78
2022/05/30 09:33:14;;;;;;;10.27;2.83;;;;;;;;;;5085216;28;20027;-79
2022/05/30 09:35:42;;;;;;;12.52;2.92;;;;;;;;;;5086920;28;20048;-78
2022/05/30 09:38:08;;;;;;;9.98;2.72;;;;;;;;;;5086172;28;20028;-78
2022/05/30 09:41:00;;;;;;;10.88;3.10;;;;;;;;;;5086851;28;20028;-78
2022/05/30 09:43:28;;;;;;;7.72;2.90;;;;;;;;;;5081390;28;20344;-79
2022/05/30 09:45:55;;;;;;;8.75;3.00;;;;;;;;;;5086787;28;20024;-77
2022/05/30 09:48:22;;;;;;;9.98;2.95;;;;;;;;;;5086904;28;20050;-77
2022/05/30 09:50:50;;;;;;;9.68;3.15;;;;;;;;;;5086838;28;20042;-77
2022/05/30 09:53:50;;;;;;;11.02;3.72;;;;;;;;;;5086853;28;20038;-77
2022/05/30 09:56:17;;;;;;;7.90;2.72;;;;;;;;;;5034725;28;20041;-77
2022/05/30 09:58:46;;;;;;;10.23;2.60;;;;;;;;;;5084854;28;20016;-79
2022/05/30 10:01:12;;;;;;;13.77;2.95;;;;;;;;;;5086866;28;20099;-76
2022/05/30 10:03:41;;;;;;;10.07;3.05;;;;;;;;;;5086246;28;20036;-78
2022/05/30 10:06:25;;;;;;;9.05;2.85;;;;;;;;;;5084781;28;20098;-77
2022/05/30 10:09:07;;;;;;;7.50;3.33;;;;;;;;;;5070347;28;20016;-77
2022/05/30 10:11:35;;;;;;;10.77;3.10;;;;;;;;;;5085984;28;20031;-78
2022/05/30 10:14:16;;;;;;;14.27;2.85;;;;;;;;;;5086195;28;20116;-77
2022/05/30 10:16:43;;;;;;;7.70;3.20;;;;;;;;;;5086261;28;20582;-78
2022/05/30 10:19:10;;;;;;;8.13;3.17;;;;;;;;;;5084206;28;20047;-78
2022/05/30 10:30:58;;;;;;;6.57;2.63;;;;;;;;;;5085791;28;20396;-78
2022/05/30 10:33:24;;;;;;;6.63;2.40;;;;;;;;;;5052819;28;20495;-77
2022/05/30 10:36:08;;;;;;;10.45;3.10;;;;;;;;;;5085839;28;20024;-78
2022/05/30 10:38:43;;;;;;;9.60;2.63;;;;;;;;;;5085784;28;20559;-77
2022/05/30 10:41:12;;;;;;;4.82;2.42;;;;;;;;;;5083842;28;20111;-77
2022/05/30 10:43:47;;;;;;;6.38;2.42;;;;;;;;;;5085334;28;20028;-77
2022/05/30 10:46:25;;;;;;;8.75;2.58;;;;;;;;;;5085183;28;20103;-77
2022/05/30 10:48:57;;;;;;;5.97;2.80;;;;;;;;;;5085581;28;20028;-77
2022/05/30 10:51:26;;;;;;;12.25;3.28;;;;;;;;;;5085367;28;20024;-77
2022/05/30 10:53:55;;;;;;;5.82;2.58;;;;;;;;;;5085200;28;20189;-77
2022/05/30 10:56:26;;;;;;;7.78;3.00;;;;;;;;;;5081791;28;20073;-77
2022/05/30 10:58:55;;;;;;;7.13;2.55;;;;;;;;;;5085047;28;20480;-78
2022/05/30 11:01:30;;;;;;;11.35;2.28;;;;;;;;;;5085024;28;20032;-77
2022/05/30 11:04:06;;;;;;;6.75;2.50;;;;;;;;;;5083310;28;20183;-78
2022/05/30 11:06:34;;;;;;;7.53;2.78;;;;;;;;;;5084804;28;20077;-78
2022/05/30 11:09:06;;;;;;;7.28;2.42;;;;;;;;;;5070621;28;20399;-78
2022/05/30 11:11:36;;;;;;;6.82;2.53;;;;;;;;;;5085244;28;20020;-78
2022/05/30 11:14:24;;;;;;;10.43;3.10;;;;;;;;;;5083381;28;20024;-78
2022/05/30 11:16:54;;;;;;;8.98;2.50;;;;;;;;;;5084972;28;20024;-78
2022/05/30 11:19:23;;;;;;;7.43;2.88;;;;;;;;;;5084503;28;20032;-77
2022/05/30 11:21:57;;;;;;;8.77;3.03;;;;;;;;;;5084817;28;20031;-77
2022/05/30 11:24:23;;;;;;;6.00;2.45;;;;;;;;;;5084964;28;20551;-77
2022/05/30 11:26:50;;;;;;;7.15;2.45;;;;;;;;;;5085132;28;20036;-77
2022/05/30 11:29:16;;;;;;;8.65;3.53;;;;;;;;;;5083076;28;20024;-78
2022/05/30 11:31:49;;;;;;;7.40;2.80;;;;;;;;;;5084518;28;20157;-78
2022/05/30 11:34:31;;;;;;;10.20;2.63;;;;;;;;;;5084452;28;20380;-77
2022/05/30 11:37:04;;;;;;;7.07;2.47;;;;;;;;;;5084929;28;20110;-77
2022/05/30 11:39:45;;;;;;;7.22;2.80;;;;;;;;;;5084443;28;20099;-77
2022/05/30 11:42:30;;;;;;;7.28;3.00;;;;;;;;;;5083106;28;20028;-77
2022/05/30 11:44:59;;;;;;;5.93;2.53;;;;;;;;;;5071047;28;20040;-77
2022/05/30 11:47:44;;;;;;;10.77;3.35;;;;;;;;;;5084901;28;20020;-78
2022/05/30 11:50:10;;;;;;;5.93;2.42;;;;;;;;;;5071058;28;20020;-77
2022/05/30 11:52:36;;;;;;;8.57;2.88;;;;;;;;;;5084420;28;20024;-77
2022/05/30 11:55:02;;;;;;;6.03;2.33;;;;;;;;;;5084385;28;20096;-77
2022/05/30 11:57:38;;;;;;;10.57;2.90;;;;;;;;;;5084647;28;20548;-77
2022/05/30 12:00:04;;;;;;;8.20;2.80;;;;;;;;;;5081826;28;20032;-79
2022/05/30 12:02:41;;;;;;;5.00;2.40;;;;;;;;;;5084157;28;20047;-77
2022/05/30 12:05:26;;;;;;;6.25;2.35;;;;;;;;;;5084260;28;20035;-77
2022/05/30 12:08:10;;;;;;;5.55;2.40;;;;;;;;;;5073943;28;20021;-78
2022/05/30 12:10:52;;;;;;;8.90;2.88;;;;;;;;;;5082873;28;20020;-77
2022/05/30 12:13:26;;;;;;;12.48;3.13;;;;;;;;;;5082150;28;20498;-77
2022/05/30 12:16:01;;;;;;;6.40;2.55;;;;;;;;;;5084115;28;20051;-79
2022/05/30 12:24:19;;;;;;;6.78;2.80;;;;;;;;;;5084405;28;20573;-78
2022/05/30 12:26:48;;;;;;;6.85;3.03;;;;;;;;;;5082455;28;20028;-78
2022/05/30 12:29:33;;;;;;;7.63;2.88;;;;;;;;;;5083957;28;20024;-77
2022/05/30 12:32:11;;;;;;;12.73;3.00;;;;;;;;;;5084060;28;20054;-79
2022/05/30 12:34:56;;;;;;;7.90;2.90;;;;;;;;;;5070276;28;20305;-79
2022/05/30 12:37:44;;;;;;;7.53;3.30;;;;;;;;;;5083476;28;20511;-77
2022/05/30 12:40:13;;;;;;;6.50;2.70;;;;;;;;;;5082396;28;20024;-77
2022/05/30 12:42:44;;;;;;;5.78;2.63;;;;;;;;;;5083819;28;20073;-78
2022/05/30 12:45:21;;;;;;;7.97;3.15;;;;;;;;;;5084259;28;20046;-78
2022/05/30 12:47:52;;;;;;;9.02;3.53;;;;;;;;;;5083733;28;20123;-76
2022/05/30 12:50:25;;;;;;;8.43;3.10;;;;;;;;;;5080966;28;20383;-77
2022/05/30 12:52:59;;;;;;;5.80;3.33;;;;;;;;;;5083652;28;20032;-78
2022/05/30 12:55:51;;;;;;;8.77;3.50;;;;;;;;;;5083876;28;20035;-78
2022/05/30 12:58:43;;;;;;;6.00;2.97;;;;;;;;;;5079662;28;20028;-77
2022/05/30 13:01:26;;;;;;;8.45;2.78;;;;;;;;;;5081721;28;20016;-77
2022/05/30 13:04:05;;;;;;;10.75;3.88;;;;;;;;;;5083353;28;20048;-77
2022/05/30 13:06:32;;;;;;;9.63;3.50;;;;;;;;;;5083217;28;21126;-77
2022/05/30 13:08:59;;;;;;;7.90;2.83;;;;;;;;;;5067848;28;20472;-78
2022/05/30 13:11:25;;;;;;;8.80;3.08;;;;;;;;;;5083635;28;20016;-77
2022/05/30 13:13:54;;;;;;;12.77;2.92;;;;;;;;;;5086326;28;20032;-77
2022/05/30 13:16:27;;;;;;;5.38;2.33;;;;;;;;;;5087042;28;20020;-78
2022/05/30 13:18:55;;;;;;;8.85;3.22;;;;;;;;;;5071626;28;20025;-79
2022/05/30 13:21:24;;;;;;;5.72;3.20;;;;;;;;;;5065590;28;20120;-78
2022/05/30 13:23:50;;;;;;;10.15;2.95;;;;;;;;;;5069169;28;20025;-79
2022/05/30 13:26:17;;;;;;;9.55;2.88;;;;;;;;;;5085845;28;20028;-78
2022/05/30 13:28:45;;;;;;;4.22;2.35;;;;;;;;;;5074256;28;20024;-78
2022/05/30 13:31:13;;;;;;;6.38;2.33;;;;;;;;;;5086973;28;20016;-79
2022/05/30 13:33:40;;;;;;;10.13;3.22;;;;;;;;;;5085388;28;20038;-78
2022/05/30 13:36:14;;;;;;;7.50;2.42;;;;;;;;;;5074763;28;20043;-78
2022/05/30 13:38:42;;;;;;;6.07;2.63;;;;;;;;;;5085614;28;20016;-78
2022/05/30 13:41:11;;;;;;;6.97;2.65;;;;;;;;;;5086810;28;20365;-78
2022/05/30 13:43:37;;;;;;;8.20;2.70;;;;;;;;;;5085195;28;20032;-79
2022/05/30 13:46:03;;;;;;;7.43;2.55;;;;;;;;;;5087130;28;20027;-78
2022/05/30 13:48:29;;;;;;;7.10;2.80;;;;;;;;;;5086891;28;20022;-77
2022/05/30 13:51:00;;;;;;;7.93;2.58;;;;;;;;;;5085562;28;20047;-78
2022/05/30 13:53:33;;;;;;;5.75;2.40;;;;;;;;;;5072068;28;20032;-77
2022/05/30 13:56:17;;;;;;;10.73;2.60;;;;;;;;;;5086568;28;20357;-78
2022/05/30 13:58:48;;;;;;;6.40;2.45;;;;;;;;;;5084885;28;20020;-78
2022/05/30 14:01:16;;;;;;;7.32;2.30;;;;;;;;;;5086484;28;20424;-77
2022/05/30 14:03:50;;;;;;;5.93;2.05;;;;;;;;;;5085859;28;20047;-78
2022/05/30 14:06:29;;;;;;;6.72;2.58;;;;;;;;;;5086167;28;20032;-78
2022/05/30 14:08:55;;;;;;;7.38;2.60;;;;;;;;;;5086333;28;20024;-79
2022/05/30 14:11:22;;;;;;;10.18;3.03;;;;;;;;;;5084563;28;20028;-79
2022/05/30 14:13:48;;;;;;;8.88;2.35;;;;;;;;;;5085535;28;20468;-79
2022/05/30 14:16:29;;;;;;;8.32;2.35;;;;;;;;;;5085903;28;20020;-77
2022/05/30 14:18:57;;;;;;;8.02;2.50;;;;;;;;;;5086000;28;20178;-77
2022/05/30 14:21:24;;;;;;;9.07;2.63;;;;;;;;;;5085944;28;20081;-78
2022/05/30 14:23:54;;;;;;;4.93;2.22;;;;;;;;;;5084386;28;20024;-78
2022/05/30 14:26:30;;;;;;;5.97;2.58;;;;;;;;;;5081710;28;20100;-78
2022/05/30 14:29:20;;;;;;;5.38;2.15;;;;;;;;;;5076991;28;20032;-78
2022/05/30 14:31:46;;;;;;;5.13;2.25;;;;;;;;;;5073741;28;20043;-77
2022/05/30 14:34:12;;;;;;;5.65;2.30;;;;;;;;;;5085702;28;20032;-77
2022/05/30 14:36:41;;;;;;;6.60;2.47;;;;;;;;;;5085803;28;20020;-77
2022/05/30 14:39:13;;;;;;;3.85;2.05;;;;;;;;;;5085571;28;20032;-77
2022/05/30 14:41:39;;;;;;;7.47;2.28;;;;;;;;;;5084054;28;20370;-78
2022/05/30 14:44:05;;;;;;;5.55;1.90;;;;;;;;;;5086001;28;20016;-78
2022/05/30 14:46:39;;;;;;;5.20;2.25;;;;;;;;;;5085502;28;20016;-78
2022/05/30 14:49:16;;;;;;;7.85;2.20;;;;;;;;;;5085098;28;20030;-78
2022/05/30 14:51:54;;;;;;;6.88;2.30;;;;;;;;;;5085538;28;20940;-78
2022/05/30 14:54:27;;;;;;;14.27;2.72;;;;;;;;;;5084133;28;20119;-78
2022/05/30 14:56:53;;;;;;;4.53;1.90;;;;;;;;;;5085350;28;20024;-79
2022/05/30 14:59:33;;;;;;;6.38;2.00;;;;;;;;;;5085408;28;20020;-78
2022/05/30 15:02:00;;;;;;;5.97;2.03;;;;;;;;;;5084792;28;20507;-78
2022/05/30 15:04:26;;;;;;;6.93;2.17;;;;;;;;;;5085077;28;20274;-77
2022/05/30 15:06:59;;;;;;;5.03;2.13;;;;;;;;;;5084992;28;20035;-78
2022/05/30 15:09:26;;;;;;;5.68;2.40;;;;;;;;;;5083663;28;20055;-79
2022/05/30 15:11:53;;;;;;;6.57;2.30;;;;;;;;;;5084808;28;20030;-78
2022/05/30 15:14:20;;;;;;;3.90;1.92;;;;;;;;;;5085032;28;20062;-79
2022/05/30 15:16:47;;;;;;;3.92;2.10;;;;;;;;;;5085190;28;20111;-77
2022/05/30 15:19:14;;;;;;;4.53;1.92;;;;;;;;;;5083508;28;20024;-78
2022/05/30 15:21:50;;;;;;;9.52;2.55;;;;;;;;;;5084625;28;20606;-78
2022/05/30 15:24:18;;;;;;;4.65;1.90;;;;;;;;;;5084676;28;20044;-78
2022/05/30 15:26:44;;;;;;;8.55;2.38;;;;;;;;;;5075787;28;20021;-77
2022/05/30 15:29:12;;;;;;;7.75;2.47;;;;;;;;;;5078399;28;20028;-77